TimeCDT,TemperatureF,Dew PointF,Humidity,Sea Level PressureIn,VisibilityMPH,Wind Direction,Wind SpeedMPH,Gust SpeedMPH,PrecipitationIn,Events,Conditions,WindDirDegrees,DateUTC
12:15 AM,44.6,42.8,93,30.10,5.0,WNW,4.6,-,N/A,,Unknown,300,2013-05-06 05:15:00
12:35 AM,44.6,42.8,93,30.11,5.0,WNW,4.6,-,N/A,,Unknown,300,2013-05-06 05:35:00
12:55 AM,44.6,42.8,93,30.10,5.0,NW,4.6,-,N/A,,Unknown,310,2013-05-06 05:55:00
1:35 AM,44.6,42.8,93,30.10,5.0,NW,5.8,-,N/A,,Unknown,310,2013-05-06 06:35:00
1:55 AM,44.6,42.8,93,30.10,5.0,NW,3.5,-,N/A,,Unknown,320,2013-05-06 06:55:00
2:15 AM,44.6,42.8,93,30.10,7.0,NW,5.8,-,N/A,,Unknown,320,2013-05-06 07:15:00
2:35 AM,44.6,42.8,93,30.09,8.0,NW,5.8,-,N/A,,Unknown,310,2013-05-06 07:35:00
2:55 AM,44.6,41.0,87,30.09,7.0,NW,4.6,-,N/A,,Unknown,320,2013-05-06 07:55:00
3:15 AM,42.8,41.0,93,30.09,7.0,North,3.5,-,N/A,,Unknown,350,2013-05-06 08:15:00
3:35 AM,42.8,41.0,93,30.09,6.0,NNW,6.9,-,N/A,,Unknown,340,2013-05-06 08:35:00
3:55 AM,42.8,41.0,93,30.09,7.0,NNW,4.6,-,N/A,,Unknown,340,2013-05-06 08:55:00
4:15 AM,42.8,39.2,87,30.09,7.0,NNW,5.8,-,N/A,,Unknown,330,2013-05-06 09:15:00
4:35 AM,42.8,39.2,87,30.09,7.0,NNW,8.1,-,N/A,,Unknown,340,2013-05-06 09:35:00
4:55 AM,42.8,39.2,87,30.09,7.0,NNW,6.9,-,N/A,,Unknown,340,2013-05-06 09:55:00
5:15 AM,42.8,39.2,87,30.10,7.0,NNW,5.8,-,N/A,,Unknown,330,2013-05-06 10:15:00
5:35 AM,42.8,39.2,87,30.11,7.0,North,6.9,-,N/A,,Unknown,350,2013-05-06 10:35:00
5:55 AM,42.8,39.2,87,30.11,8.0,NNW,6.9,-,N/A,,Unknown,340,2013-05-06 10:55:00
6:15 AM,42.8,39.2,87,30.11,7.0,NNW,8.1,-,N/A,,Unknown,340,2013-05-06 11:15:00
6:35 AM,42.8,39.2,87,30.11,7.0,NNW,9.2,-,N/A,,Unknown,340,2013-05-06 11:35:00
6:55 AM,42.8,39.2,87,30.12,7.0,NNW,6.9,-,N/A,,Unknown,330,2013-05-06 11:55:00
7:15 AM,42.8,39.2,87,30.12,8.0,NNW,5.8,-,N/A,,Unknown,340,2013-05-06 12:15:00
7:35 AM,44.6,39.2,81,30.12,8.0,NNW,8.1,-,N/A,,Unknown,330,2013-05-06 12:35:00
7:55 AM,44.6,41.0,87,30.12,9.0,North,5.8,-,N/A,,Unknown,350,2013-05-06 12:55:00
8:15 AM,44.6,41.0,87,30.12,10.0,North,4.6,-,N/A,,Unknown,350,2013-05-06 13:15:00
8:35 AM,46.4,42.8,87,30.12,10.0,North,3.5,-,N/A,,Unknown,360,2013-05-06 13:35:00
8:55 AM,46.4,44.6,93,30.12,10.0,NNW,4.6,-,N/A,,Unknown,340,2013-05-06 13:55:00
9:15 AM,48.2,44.6,87,30.12,10.0,North,6.9,-,N/A,,Unknown,350,2013-05-06 14:15:00
9:35 AM,51.8,46.4,82,30.12,10.0,NNE,4.6,-,N/A,,Unknown,30,2013-05-06 14:35:00
9:55 AM,53.6,48.2,82,30.12,10.0,NNE,5.8,-,N/A,,Unknown,30,2013-05-06 14:55:00
10:15 AM,55.4,48.2,77,30.12,7.0,North,4.6,-,N/A,,Unknown,360,2013-05-06 15:15:00
10:35 AM,57.2,50.0,77,30.12,10.0,NNW,4.6,-,N/A,,Unknown,340,2013-05-06 15:35:00
10:55 AM,59.0,51.8,77,30.12,10.0,NNE,4.6,-,N/A,,Unknown,20,2013-05-06 15:55:00
11:15 AM,60.8,51.8,72,30.12,10.0,North,3.5,-,N/A,,Unknown,10,2013-05-06 16:15:00
11:35 AM,62.6,51.8,68,30.11,10.0,NW,4.6,-,N/A,,Unknown,310,2013-05-06 16:35:00
11:55 AM,62.6,51.8,68,30.11,10.0,NW,3.5,-,N/A,,Unknown,320,2013-05-06 16:55:00
12:15 PM,64.4,53.6,68,30.11,10.0,North,8.1,-,N/A,,Unknown,10,2013-05-06 17:15:00
12:35 PM,66.2,53.6,64,30.10,10.0,NW,6.9,-,N/A,,Unknown,310,2013-05-06 17:35:00
12:55 PM,66.2,53.6,64,30.10,10.0,WNW,6.9,-,N/A,,Unknown,300,2013-05-06 17:55:00
1:15 PM,66.2,53.6,64,30.09,10.0,NNW,3.5,-,N/A,,Unknown,330,2013-05-06 18:15:00
1:35 PM,68.0,53.6,60,30.10,10.0,NNW,5.8,-,N/A,,Unknown,330,2013-05-06 18:35:00
1:55 PM,68.0,55.4,64,30.09,10.0,North,4.6,-,N/A,,Unknown,350,2013-05-06 18:55:00
2:15 PM,68.0,53.6,60,30.09,10.0,Calm,Calm,-,N/A,,Unknown,0,2013-05-06 19:15:00
2:35 PM,68.0,53.6,60,30.08,10.0,Calm,Calm,-,N/A,,Unknown,0,2013-05-06 19:35:00
2:55 PM,69.8,53.6,56,30.08,10.0,WSW,4.6,-,N/A,,Unknown,250,2013-05-06 19:55:00
3:15 PM,69.8,53.6,56,30.07,10.0,WSW,3.5,-,N/A,,Unknown,250,2013-05-06 20:15:00
3:35 PM,69.8,53.6,56,30.07,10.0,West,5.8,-,N/A,,Unknown,260,2013-05-06 20:35:00
3:55 PM,69.8,53.6,56,30.06,10.0,Calm,Calm,-,N/A,,Unknown,0,2013-05-06 20:55:00
4:15 PM,69.8,51.8,53,30.06,10.0,NE,3.5,-,N/A,,Unknown,50,2013-05-06 21:15:00
4:35 PM,69.8,51.8,53,30.05,10.0,NW,4.6,-,N/A,,Unknown,320,2013-05-06 21:35:00
4:55 PM,71.6,53.6,53,30.05,10.0,NW,5.8,-,N/A,,Unknown,310,2013-05-06 21:55:00
5:15 PM,68.0,51.8,56,30.05,10.0,NW,5.8,-,N/A,,Unknown,320,2013-05-06 22:15:00
5:55 PM,69.8,51.8,53,30.04,10.0,NW,4.6,-,N/A,,Unknown,310,2013-05-06 22:55:00
6:15 PM,69.8,51.8,53,30.04,10.0,NW,5.8,-,N/A,,Unknown,320,2013-05-06 23:15:00
6:35 PM,69.8,50.0,49,30.04,10.0,NNW,4.6,-,N/A,,Unknown,340,2013-05-06 23:35:00
6:55 PM,69.8,51.8,53,30.03,10.0,North,3.5,-,N/A,,Unknown,360,2013-05-06 23:55:00
7:15 PM,69.8,50.0,49,30.03,10.0,WNW,3.5,-,N/A,,Unknown,290,2013-05-07 00:15:00
7:35 PM,68.0,50.0,52,30.03,10.0,Calm,Calm,-,N/A,,Unknown,0,2013-05-07 00:35:00
7:55 PM,66.2,50.0,56,30.03,10.0,Calm,Calm,-,N/A,,Unknown,0,2013-05-07 00:55:00
8:15 PM,64.4,50.0,59,30.03,10.0,NNW,3.5,-,N/A,,Unknown,340,2013-05-07 01:15:00
8:35 PM,64.4,50.0,59,30.03,10.0,Calm,Calm,-,N/A,,Unknown,0,2013-05-07 01:35:00
8:55 PM,62.6,50.0,63,30.04,10.0,Calm,Calm,-,N/A,,Unknown,0,2013-05-07 01:55:00
9:15 PM,62.6,50.0,63,30.04,10.0,Calm,Calm,-,N/A,,Unknown,0,2013-05-07 02:15:00
9:35 PM,60.8,51.8,72,30.05,10.0,Calm,Calm,-,N/A,,Unknown,0,2013-05-07 02:35:00
9:55 PM,57.2,50.0,77,30.06,10.0,NNW,3.5,-,N/A,,Unknown,330,2013-05-07 02:55:00
10:15 PM,53.6,48.2,82,30.06,10.0,Calm,Calm,-,N/A,,Unknown,0,2013-05-07 03:15:00
10:35 PM,53.6,48.2,82,30.07,10.0,Calm,Calm,-,N/A,,Unknown,0,2013-05-07 03:35:00
10:55 PM,53.6,48.2,82,30.07,10.0,Calm,Calm,-,N/A,,Unknown,0,2013-05-07 03:55:00
11:15 PM,51.8,46.4,82,30.07,10.0,Calm,Calm,-,N/A,,Unknown,0,2013-05-07 04:15:00
11:35 PM,51.8,48.2,88,30.07,10.0,Calm,Calm,-,N/A,,Unknown,0,2013-05-07 04:35:00
11:55 PM,51.8,46.4,82,30.07,10.0,Calm,Calm,-,N/A,,Unknown,0,2013-05-07 04:55:00